sensor_id;sensor_type;location;lat;lon;timestamp;temperature;humidity
30999;DHT22;20549;50.042;8.968;2023-02-21T00:00:33;9.00;78.00
30999;DHT22;20549;50.042;8.968;2023-02-21T00:03:18;8.90;78.20
30999;DHT22;20549;50.042;8.968;2023-02-21T00:06:03;8.90;78.20
30999;DHT22;20549;50.042;8.968;2023-02-21T00:08:47;8.80;78.30
30999;DHT22;20549;50.042;8.968;2023-02-21T00:11:32;8.80;78.50
30999;DHT22;20549;50.042;8.968;2023-02-21T00:14:17;8.80;78.50
30999;DHT22;20549;50.042;8.968;2023-02-21T00:17:02;8.70;78.50
30999;DHT22;20549;50.042;8.968;2023-02-21T00:19:46;8.70;78.60
30999;DHT22;20549;50.042;8.968;2023-02-21T00:22:31;8.70;78.80
30999;DHT22;20549;50.042;8.968;2023-02-21T00:25:16;8.60;78.80
30999;DHT22;20549;50.042;8.968;2023-02-21T00:28:00;8.50;78.80
30999;DHT22;20549;50.042;8.968;2023-02-21T00:30:45;8.50;78.90
30999;DHT22;20549;50.042;8.968;2023-02-21T00:33:29;8.40;78.90
30999;DHT22;20549;50.042;8.968;2023-02-21T00:36:15;8.40;79.10
30999;DHT22;20549;50.042;8.968;2023-02-21T00:38:59;8.30;79.20
30999;DHT22;20549;50.042;8.968;2023-02-21T00:41:44;8.20;79.20
30999;DHT22;20549;50.042;8.968;2023-02-21T00:44:29;8.20;79.30
30999;DHT22;20549;50.042;8.968;2023-02-21T00:47:13;8.10;79.30
30999;DHT22;20549;50.042;8.968;2023-02-21T00:49:58;8.00;79.40
30999;DHT22;20549;50.042;8.968;2023-02-21T00:52:42;7.90;79.60
30999;DHT22;20549;50.042;8.968;2023-02-21T00:55:27;7.90;79.60
30999;DHT22;20549;50.042;8.968;2023-02-21T00:58:11;7.80;79.70
30999;DHT22;20549;50.042;8.968;2023-02-21T01:00:56;7.80;79.90
30999;DHT22;20549;50.042;8.968;2023-02-21T01:03:40;7.70;80.00
30999;DHT22;20549;50.042;8.968;2023-02-21T01:06:25;7.70;80.30
30999;DHT22;20549;50.042;8.968;2023-02-21T01:09:09;7.60;80.50
30999;DHT22;20549;50.042;8.968;2023-02-21T01:11:54;7.60;80.70
30999;DHT22;20549;50.042;8.968;2023-02-21T01:14:39;7.50;80.90
30999;DHT22;20549;50.042;8.968;2023-02-21T01:17:24;7.50;81.20
30999;DHT22;20549;50.042;8.968;2023-02-21T01:20:09;7.50;81.70
30999;DHT22;20549;50.042;8.968;2023-02-21T01:22:53;7.50;82.00
30999;DHT22;20549;50.042;8.968;2023-02-21T01:25:38;7.40;82.30
30999;DHT22;20549;50.042;8.968;2023-02-21T01:28:23;7.50;82.90
30999;DHT22;20549;50.042;8.968;2023-02-21T01:31:07;7.60;83.20
30999;DHT22;20549;50.042;8.968;2023-02-21T01:33:52;7.60;83.30
30999;DHT22;20549;50.042;8.968;2023-02-21T01:36:39;7.70;83.40
30999;DHT22;20549;50.042;8.968;2023-02-21T01:39:21;7.70;83.20
30999;DHT22;20549;50.042;8.968;2023-02-21T01:42:07;7.80;83.00
30999;DHT22;20549;50.042;8.968;2023-02-21T01:45:05;7.80;82.80
30999;DHT22;20549;50.042;8.968;2023-02-21T01:47:35;7.80;82.80
30999;DHT22;20549;50.042;8.968;2023-02-21T01:50:22;7.80;83.10
30999;DHT22;20549;50.042;8.968;2023-02-21T01:53:07;7.90;83.50
30999;DHT22;20549;50.042;8.968;2023-02-21T01:55:49;7.90;83.80
30999;DHT22;20549;50.042;8.968;2023-02-21T01:58:34;8.00;83.70
30999;DHT22;20549;50.042;8.968;2023-02-21T02:01:28;8.00;83.50
30999;DHT22;20549;50.042;8.968;2023-02-21T02:04:06;8.00;83.20
30999;DHT22;20549;50.042;8.968;2023-02-21T02:06:51;8.10;82.90
30999;DHT22;20549;50.042;8.968;2023-02-21T02:09:36;8.00;82.70
30999;DHT22;20549;50.042;8.968;2023-02-21T02:15:20;8.00;82.70
30999;DHT22;20549;50.042;8.968;2023-02-21T02:18:09;7.90;83.00
30999;DHT22;20549;50.042;8.968;2023-02-21T02:36:29;7.80;84.60
30999;DHT22;20549;50.042;8.968;2023-02-21T02:41:27;7.80;85.20
30999;DHT22;20549;50.042;8.968;2023-02-21T02:43:53;7.80;85.20
30999;DHT22;20549;50.042;8.968;2023-02-21T02:46:27;7.80;85.30
30999;DHT22;20549;50.042;8.968;2023-02-21T02:49:05;7.80;85.50
30999;DHT22;20549;50.042;8.968;2023-02-21T02:51:19;7.80;85.50
30999;DHT22;20549;50.042;8.968;2023-02-21T02:53:46;7.80;85.60
30999;DHT22;20549;50.042;8.968;2023-02-21T02:56:13;7.80;85.80
30999;DHT22;20549;50.042;8.968;2023-02-21T02:58:40;7.80;85.90
30999;DHT22;20549;50.042;8.968;2023-02-21T03:04:00;7.80;85.80
30999;DHT22;20549;50.042;8.968;2023-02-21T03:09:04;7.80;85.90
30999;DHT22;20549;50.042;8.968;2023-02-21T03:11:27;7.80;86.00
30999;DHT22;20549;50.042;8.968;2023-02-21T03:16:43;7.80;86.00
30999;DHT22;20549;50.042;8.968;2023-02-21T03:19:24;7.80;85.90
30999;DHT22;20549;50.042;8.968;2023-02-21T03:21:42;7.80;85.70
30999;DHT22;20549;50.042;8.968;2023-02-21T03:24:07;7.70;86.10
30999;DHT22;20549;50.042;8.968;2023-02-21T03:26:35;7.70;86.50
30999;DHT22;20549;50.042;8.968;2023-02-21T03:29:01;7.80;86.90
30999;DHT22;20549;50.042;8.968;2023-02-21T03:31:28;7.80;87.30
30999;DHT22;20549;50.042;8.968;2023-02-21T03:33:53;7.80;87.60
30999;DHT22;20549;50.042;8.968;2023-02-21T03:36:20;7.90;88.10
30999;DHT22;20549;50.042;8.968;2023-02-21T03:38:47;7.90;88.10
30999;DHT22;20549;50.042;8.968;2023-02-21T03:41:13;8.00;88.30
30999;DHT22;20549;50.042;8.968;2023-02-21T03:43:40;8.10;88.30
30999;DHT22;20549;50.042;8.968;2023-02-21T03:46:06;8.10;88.30
30999;DHT22;20549;50.042;8.968;2023-02-21T03:48:33;8.20;88.30
30999;DHT22;20549;50.042;8.968;2023-02-21T03:51:00;8.30;88.10
30999;DHT22;20549;50.042;8.968;2023-02-21T03:53:26;8.40;88.10
30999;DHT22;20549;50.042;8.968;2023-02-21T03:55:53;8.40;87.80
30999;DHT22;20549;50.042;8.968;2023-02-21T03:58:19;8.50;87.50
30999;DHT22;20549;50.042;8.968;2023-02-21T04:00:46;8.50;87.20
30999;DHT22;20549;50.042;8.968;2023-02-21T04:03:12;8.60;87.10
30999;DHT22;20549;50.042;8.968;2023-02-21T04:05:39;8.60;86.90
30999;DHT22;20549;50.042;8.968;2023-02-21T04:08:06;8.60;86.80
30999;DHT22;20549;50.042;8.968;2023-02-21T04:10:32;8.60;86.90
30999;DHT22;20549;50.042;8.968;2023-02-21T04:12:59;8.60;86.80
30999;DHT22;20549;50.042;8.968;2023-02-21T04:15:25;8.70;86.90
30999;DHT22;20549;50.042;8.968;2023-02-21T04:17:52;8.70;86.90
30999;DHT22;20549;50.042;8.968;2023-02-21T04:20:19;8.70;87.10
30999;DHT22;20549;50.042;8.968;2023-02-21T04:22:45;8.70;87.20
30999;DHT22;20549;50.042;8.968;2023-02-21T04:25:12;8.80;87.30
30999;DHT22;20549;50.042;8.968;2023-02-21T04:27:38;8.80;87.40
30999;DHT22;20549;50.042;8.968;2023-02-21T04:30:05;8.80;87.40
30999;DHT22;20549;50.042;8.968;2023-02-21T04:32:31;8.90;87.40
30999;DHT22;20549;50.042;8.968;2023-02-21T04:34:58;8.90;87.40
30999;DHT22;20549;50.042;8.968;2023-02-21T04:37:25;8.90;87.20
30999;DHT22;20549;50.042;8.968;2023-02-21T04:39:51;9.00;87.40
30999;DHT22;20549;50.042;8.968;2023-02-21T04:42:18;9.00;87.20
30999;DHT22;20549;50.042;8.968;2023-02-21T04:44:44;9.00;87.20
30999;DHT22;20549;50.042;8.968;2023-02-21T04:47:11;9.10;87.20
30999;DHT22;20549;50.042;8.968;2023-02-21T04:49:38;9.10;87.00
30999;DHT22;20549;50.042;8.968;2023-02-21T04:52:04;9.10;87.00
30999;DHT22;20549;50.042;8.968;2023-02-21T04:54:31;9.20;86.90
30999;DHT22;20549;50.042;8.968;2023-02-21T04:56:57;9.20;86.40
30999;DHT22;20549;50.042;8.968;2023-02-21T04:59:24;9.20;86.80
30999;DHT22;20549;50.042;8.968;2023-02-21T05:01:50;9.20;86.80
30999;DHT22;20549;50.042;8.968;2023-02-21T05:04:17;9.20;86.80
30999;DHT22;20549;50.042;8.968;2023-02-21T05:06:44;9.20;86.80
30999;DHT22;20549;50.042;8.968;2023-02-21T05:09:10;9.30;87.00
30999;DHT22;20549;50.042;8.968;2023-02-21T05:11:37;9.30;87.00
30999;DHT22;20549;50.042;8.968;2023-02-21T05:14:03;9.30;87.00
30999;DHT22;20549;50.042;8.968;2023-02-21T05:16:30;9.30;87.00
30999;DHT22;20549;50.042;8.968;2023-02-21T05:18:57;9.30;87.00
30999;DHT22;20549;50.042;8.968;2023-02-21T05:21:23;9.30;87.00
30999;DHT22;20549;50.042;8.968;2023-02-21T05:23:50;9.30;86.80
30999;DHT22;20549;50.042;8.968;2023-02-21T05:26:20;9.30;86.80
30999;DHT22;20549;50.042;8.968;2023-02-21T05:28:46;9.30;86.70
30999;DHT22;20549;50.042;8.968;2023-02-21T05:31:12;9.30;86.50
30999;DHT22;20549;50.042;8.968;2023-02-21T05:33:39;9.30;86.40
30999;DHT22;20549;50.042;8.968;2023-02-21T05:36:05;9.20;86.30
30999;DHT22;20549;50.042;8.968;2023-02-21T05:38:32;9.20;86.10
30999;DHT22;20549;50.042;8.968;2023-02-21T05:40:59;9.20;85.90
30999;DHT22;20549;50.042;8.968;2023-02-21T05:43:25;9.10;85.90
30999;DHT22;20549;50.042;8.968;2023-02-21T05:45:52;9.10;85.70
30999;DHT22;20549;50.042;8.968;2023-02-21T05:48:18;9.00;85.70
30999;DHT22;20549;50.042;8.968;2023-02-21T05:50:45;8.90;85.80
30999;DHT22;20549;50.042;8.968;2023-02-21T05:53:12;8.80;85.90
30999;DHT22;20549;50.042;8.968;2023-02-21T05:55:38;8.70;86.10
30999;DHT22;20549;50.042;8.968;2023-02-21T05:58:05;8.60;86.10
30999;DHT22;20549;50.042;8.968;2023-02-21T06:00:31;8.60;86.50
30999;DHT22;20549;50.042;8.968;2023-02-21T06:02:58;8.50;86.80
30999;DHT22;20549;50.042;8.968;2023-02-21T06:05:24;8.40;87.20
30999;DHT22;20549;50.042;8.968;2023-02-21T06:07:51;8.40;87.70
30999;DHT22;20549;50.042;8.968;2023-02-21T06:10:18;8.30;88.20
30999;DHT22;20549;50.042;8.968;2023-02-21T06:12:44;8.30;88.80
30999;DHT22;20549;50.042;8.968;2023-02-21T06:15:11;8.30;89.10
30999;DHT22;20549;50.042;8.968;2023-02-21T06:17:38;8.30;89.50
30999;DHT22;20549;50.042;8.968;2023-02-21T06:20:04;8.30;89.70
30999;DHT22;20549;50.042;8.968;2023-02-21T06:22:31;8.30;89.90
30999;DHT22;20549;50.042;8.968;2023-02-21T06:24:57;8.30;90.00
30999;DHT22;20549;50.042;8.968;2023-02-21T06:27:24;8.30;90.10
30999;DHT22;20549;50.042;8.968;2023-02-21T06:29:50;8.30;90.20
30999;DHT22;20549;50.042;8.968;2023-02-21T06:32:17;8.40;90.40
30999;DHT22;20549;50.042;8.968;2023-02-21T06:34:43;8.40;90.50
30999;DHT22;20549;50.042;8.968;2023-02-21T06:37:10;8.50;90.70
30999;DHT22;20549;50.042;8.968;2023-02-21T06:39:40;8.50;90.80
30999;DHT22;20549;50.042;8.968;2023-02-21T06:42:06;8.50;90.90
30999;DHT22;20549;50.042;8.968;2023-02-21T06:44:33;8.60;91.00
30999;DHT22;20549;50.042;8.968;2023-02-21T06:46:59;8.70;91.10
30999;DHT22;20549;50.042;8.968;2023-02-21T06:49:26;8.80;91.10
30999;DHT22;20549;50.042;8.968;2023-02-21T06:51:52;8.90;91.10
30999;DHT22;20549;50.042;8.968;2023-02-21T06:54:19;9.00;91.10
30999;DHT22;20549;50.042;8.968;2023-02-21T06:56:46;9.10;91.10
30999;DHT22;20549;50.042;8.968;2023-02-21T06:59:12;9.20;91.10
30999;DHT22;20549;50.042;8.968;2023-02-21T07:01:39;9.20;91.00
30999;DHT22;20549;50.042;8.968;2023-02-21T07:04:05;9.30;90.90
30999;DHT22;20549;50.042;8.968;2023-02-21T07:06:32;9.40;90.80
30999;DHT22;20549;50.042;8.968;2023-02-21T07:08:59;9.50;90.70
30999;DHT22;20549;50.042;8.968;2023-02-21T07:11:25;9.50;90.60
30999;DHT22;20549;50.042;8.968;2023-02-21T07:13:52;9.60;90.60
30999;DHT22;20549;50.042;8.968;2023-02-21T07:16:19;9.70;90.50
30999;DHT22;20549;50.042;8.968;2023-02-21T07:18:45;9.80;90.50
30999;DHT22;20549;50.042;8.968;2023-02-21T07:21:12;9.80;90.30
30999;DHT22;20549;50.042;8.968;2023-02-21T07:23:38;9.90;90.20
30999;DHT22;20549;50.042;8.968;2023-02-21T07:26:05;10.00;90.10
30999;DHT22;20549;50.042;8.968;2023-02-21T07:28:31;10.00;90.00
30999;DHT22;20549;50.042;8.968;2023-02-21T07:30:58;10.10;90.00
30999;DHT22;20549;50.042;8.968;2023-02-21T07:33:24;10.20;90.00
30999;DHT22;20549;50.042;8.968;2023-02-21T07:35:51;10.20;90.00
30999;DHT22;20549;50.042;8.968;2023-02-21T07:38:24;10.30;89.80
30999;DHT22;20549;50.042;8.968;2023-02-21T07:40:50;10.40;89.80
30999;DHT22;20549;50.042;8.968;2023-02-21T07:43:16;10.40;89.60
30999;DHT22;20549;50.042;8.968;2023-02-21T07:45:43;10.50;89.60
30999;DHT22;20549;50.042;8.968;2023-02-21T07:48:09;10.60;89.70
30999;DHT22;20549;50.042;8.968;2023-02-21T07:50:36;10.60;89.60
30999;DHT22;20549;50.042;8.968;2023-02-21T07:53:03;10.70;89.40
30999;DHT22;20549;50.042;8.968;2023-02-21T07:55:29;10.80;89.30
30999;DHT22;20549;50.042;8.968;2023-02-21T07:57:56;10.80;89.10
30999;DHT22;20549;50.042;8.968;2023-02-21T08:00:22;10.90;89.00
30999;DHT22;20549;50.042;8.968;2023-02-21T08:02:49;11.00;88.80
30999;DHT22;20549;50.042;8.968;2023-02-21T08:05:16;11.00;88.70
30999;DHT22;20549;50.042;8.968;2023-02-21T08:07:42;11.10;88.80
30999;DHT22;20549;50.042;8.968;2023-02-21T08:10:09;11.20;88.70
30999;DHT22;20549;50.042;8.968;2023-02-21T08:12:35;11.20;88.80
30999;DHT22;20549;50.042;8.968;2023-02-21T08:15:02;11.40;88.60
30999;DHT22;20549;50.042;8.968;2023-02-21T08:17:28;11.40;88.30
30999;DHT22;20549;50.042;8.968;2023-02-21T08:19:55;11.50;88.30
30999;DHT22;20549;50.042;8.968;2023-02-21T08:22:22;11.60;88.30
30999;DHT22;20549;50.042;8.968;2023-02-21T08:24:49;11.70;88.30
30999;DHT22;20549;50.042;8.968;2023-02-21T08:27:15;11.90;88.40
30999;DHT22;20549;50.042;8.968;2023-02-21T08:29:41;12.00;88.30
30999;DHT22;20549;50.042;8.968;2023-02-21T08:32:08;12.10;88.10
30999;DHT22;20549;50.042;8.968;2023-02-21T08:34:35;12.30;88.10
30999;DHT22;20549;50.042;8.968;2023-02-21T08:37:01;12.40;87.90
30999;DHT22;20549;50.042;8.968;2023-02-21T08:39:28;12.60;87.80
30999;DHT22;20549;50.042;8.968;2023-02-21T08:41:54;12.70;87.90
30999;DHT22;20549;50.042;8.968;2023-02-21T08:44:21;12.90;87.60
30999;DHT22;20549;50.042;8.968;2023-02-21T08:46:48;13.10;87.00
30999;DHT22;20549;50.042;8.968;2023-02-21T08:49:14;13.20;86.40
30999;DHT22;20549;50.042;8.968;2023-02-21T08:51:41;13.40;85.70
30999;DHT22;20549;50.042;8.968;2023-02-21T08:54:07;13.50;85.00
30999;DHT22;20549;50.042;8.968;2023-02-21T08:56:34;13.70;84.30
30999;DHT22;20549;50.042;8.968;2023-02-21T08:59:00;13.80;83.40
30999;DHT22;20549;50.042;8.968;2023-02-21T09:01:33;13.90;82.80
30999;DHT22;20549;50.042;8.968;2023-02-21T09:04:00;14.00;82.40
30999;DHT22;20549;50.042;8.968;2023-02-21T09:06:26;14.00;82.10
30999;DHT22;20549;50.042;8.968;2023-02-21T09:08:53;14.10;81.70
30999;DHT22;20549;50.042;8.968;2023-02-21T09:11:19;14.20;81.30
30999;DHT22;20549;50.042;8.968;2023-02-21T09:13:46;14.30;81.00
30999;DHT22;20549;50.042;8.968;2023-02-21T09:16:12;14.30;80.50
30999;DHT22;20549;50.042;8.968;2023-02-21T09:18:39;14.40;80.30
30999;DHT22;20549;50.042;8.968;2023-02-21T09:21:06;14.50;80.20
30999;DHT22;20549;50.042;8.968;2023-02-21T09:23:32;14.50;79.90
30999;DHT22;20549;50.042;8.968;2023-02-21T09:25:59;14.60;79.60
30999;DHT22;20549;50.042;8.968;2023-02-21T09:28:25;14.70;79.20
30999;DHT22;20549;50.042;8.968;2023-02-21T09:30:52;14.70;79.60
30999;DHT22;20549;50.042;8.968;2023-02-21T09:33:19;14.80;78.50
30999;DHT22;20549;50.042;8.968;2023-02-21T09:35:45;14.80;78.20
30999;DHT22;20549;50.042;8.968;2023-02-21T09:38:12;14.80;77.90
30999;DHT22;20549;50.042;8.968;2023-02-21T09:40:42;14.90;77.90
30999;DHT22;20549;50.042;8.968;2023-02-21T09:43:12;14.90;77.70
30999;DHT22;20549;50.042;8.968;2023-02-21T09:45:37;14.90;77.50
30999;DHT22;20549;50.042;8.968;2023-02-21T09:48:08;15.00;77.50
30999;DHT22;20549;50.042;8.968;2023-02-21T09:50:31;15.00;77.30
30999;DHT22;20549;50.042;8.968;2023-02-21T09:52:57;15.10;77.40
30999;DHT22;20549;50.042;8.968;2023-02-21T09:55:42;15.10;77.30
30999;DHT22;20549;50.042;8.968;2023-02-21T09:57:53;15.20;77.10
30999;DHT22;20549;50.042;8.968;2023-02-21T10:00:33;15.30;77.30
30999;DHT22;20549;50.042;8.968;2023-02-21T10:08:33;15.70;77.60
30999;DHT22;20549;50.042;8.968;2023-02-21T10:10:59;15.80;77.50
30999;DHT22;20549;50.042;8.968;2023-02-21T10:13:45;16.00;77.30
30999;DHT22;20549;50.042;8.968;2023-02-21T10:16:16;16.20;77.00
30999;DHT22;20549;50.042;8.968;2023-02-21T10:18:42;16.40;76.70
30999;DHT22;20549;50.042;8.968;2023-02-21T10:21:08;16.60;76.10
30999;DHT22;20549;50.042;8.968;2023-02-21T10:23:37;16.80;75.70
30999;DHT22;20549;50.042;8.968;2023-02-21T10:26:11;17.00;75.50
30999;DHT22;20549;50.042;8.968;2023-02-21T10:28:36;17.20;75.00
30999;DHT22;20549;50.042;8.968;2023-02-21T10:31:05;17.40;74.20
30999;DHT22;20549;50.042;8.968;2023-02-21T10:33:29;17.50;73.70
30999;DHT22;20549;50.042;8.968;2023-02-21T10:35:55;17.70;73.40
30999;DHT22;20549;50.042;8.968;2023-02-21T10:38:25;17.80;73.00
30999;DHT22;20549;50.042;8.968;2023-02-21T10:40:56;18.00;72.70
30999;DHT22;20549;50.042;8.968;2023-02-21T10:43:31;18.10;72.20
30999;DHT22;20549;50.042;8.968;2023-02-21T10:45:58;18.30;71.80
30999;DHT22;20549;50.042;8.968;2023-02-21T10:48:27;18.40;71.40
30999;DHT22;20549;50.042;8.968;2023-02-21T10:51:08;18.50;70.70
30999;DHT22;20549;50.042;8.968;2023-02-21T10:53:37;18.60;70.20
30999;DHT22;20549;50.042;8.968;2023-02-21T10:58:45;18.80;69.80
30999;DHT22;20549;50.042;8.968;2023-02-21T11:01:18;18.90;69.50
30999;DHT22;20549;50.042;8.968;2023-02-21T11:03:50;18.90;69.00
30999;DHT22;20549;50.042;8.968;2023-02-21T11:06:36;19.00;68.80
30999;DHT22;20549;50.042;8.968;2023-02-21T11:09:02;19.00;68.30
30999;DHT22;20549;50.042;8.968;2023-02-21T11:11:35;19.00;68.10
30999;DHT22;20549;50.042;8.968;2023-02-21T11:16:39;19.00;67.60
30999;DHT22;20549;50.042;8.968;2023-02-21T11:19:06;19.00;67.50
30999;DHT22;20549;50.042;8.968;2023-02-21T11:21:32;18.90;66.90
30999;DHT22;20549;50.042;8.968;2023-02-21T11:23:59;18.90;67.10
30999;DHT22;20549;50.042;8.968;2023-02-21T11:26:27;18.80;66.90
30999;DHT22;20549;50.042;8.968;2023-02-21T11:28:52;18.80;66.50
30999;DHT22;20549;50.042;8.968;2023-02-21T11:31:25;18.70;66.40
30999;DHT22;20549;50.042;8.968;2023-02-21T11:33:51;18.70;66.70
30999;DHT22;20549;50.042;8.968;2023-02-21T11:36:16;18.60;66.50
30999;DHT22;20549;50.042;8.968;2023-02-21T11:38:42;18.60;66.70
30999;DHT22;20549;50.042;8.968;2023-02-21T11:43:50;18.50;67.50
30999;DHT22;20549;50.042;8.968;2023-02-21T11:49:38;18.40;66.70
30999;DHT22;20549;50.042;8.968;2023-02-21T11:51:31;18.40;66.70
30999;DHT22;20549;50.042;8.968;2023-02-21T11:53:50;18.40;66.80
30999;DHT22;20549;50.042;8.968;2023-02-21T11:56:27;18.30;66.90
30999;DHT22;20549;50.042;8.968;2023-02-21T11:58:56;18.30;67.00
30999;DHT22;20549;50.042;8.968;2023-02-21T12:04:15;18.40;66.80
30999;DHT22;20549;50.042;8.968;2023-02-21T12:09:27;18.30;66.30
30999;DHT22;20549;50.042;8.968;2023-02-21T12:12:06;18.20;66.30
30999;DHT22;20549;50.042;8.968;2023-02-21T12:20:04;18.00;66.40
30999;DHT22;20549;50.042;8.968;2023-02-21T12:25:31;17.90;66.50
30999;DHT22;20549;50.042;8.968;2023-02-21T12:28:03;17.80;66.70
30999;DHT22;20549;50.042;8.968;2023-02-21T12:36:00;17.50;66.70
30999;DHT22;20549;50.042;8.968;2023-02-21T12:43:41;17.20;66.90
30999;DHT22;20549;50.042;8.968;2023-02-21T12:49:00;17.10;67.40
30999;DHT22;20549;50.042;8.968;2023-02-21T12:51:48;17.10;67.50
30999;DHT22;20549;50.042;8.968;2023-02-21T12:54:19;17.10;67.70
30999;DHT22;20549;50.042;8.968;2023-02-21T12:57:04;17.00;67.70
30999;DHT22;20549;50.042;8.968;2023-02-21T12:59:19;17.00;67.80
30999;DHT22;20549;50.042;8.968;2023-02-21T13:01:46;17.00;67.80
30999;DHT22;20549;50.042;8.968;2023-02-21T13:07:29;17.00;68.00
30999;DHT22;20549;50.042;8.968;2023-02-21T13:09:38;17.00;68.00
30999;DHT22;20549;50.042;8.968;2023-02-21T13:12:12;17.00;68.10
30999;DHT22;20549;50.042;8.968;2023-02-21T13:14:46;17.00;68.20
30999;DHT22;20549;50.042;8.968;2023-02-21T13:17:14;17.00;68.30
30999;DHT22;20549;50.042;8.968;2023-02-21T13:20:03;17.00;68.30
30999;DHT22;20549;50.042;8.968;2023-02-21T13:28:29;17.00;68.20
30999;DHT22;20549;50.042;8.968;2023-02-21T13:30:59;17.00;68.20
30999;DHT22;20549;50.042;8.968;2023-02-21T13:33:41;17.00;68.60
30999;DHT22;20549;50.042;8.968;2023-02-21T13:36:20;17.00;68.30
30999;DHT22;20549;50.042;8.968;2023-02-21T13:38:45;17.10;68.30
30999;DHT22;20549;50.042;8.968;2023-02-21T13:41:11;17.10;68.30
30999;DHT22;20549;50.042;8.968;2023-02-21T13:43:44;17.10;68.30
30999;DHT22;20549;50.042;8.968;2023-02-21T13:57:39;17.20;68.10
30999;DHT22;20549;50.042;8.968;2023-02-21T14:08:33;17.20;68.30
30999;DHT22;20549;50.042;8.968;2023-02-21T14:11:09;17.20;68.20
30999;DHT22;20549;50.042;8.968;2023-02-21T14:21:32;17.30;68.30
30999;DHT22;20549;50.042;8.968;2023-02-21T14:23:59;17.30;68.10
30999;DHT22;20549;50.042;8.968;2023-02-21T14:26:53;17.30;68.10
30999;DHT22;20549;50.042;8.968;2023-02-21T14:29:29;17.30;68.10
30999;DHT22;20549;50.042;8.968;2023-02-21T14:37:33;17.30;67.80
30999;DHT22;20549;50.042;8.968;2023-02-21T14:40:16;17.30;67.80
30999;DHT22;20549;50.042;8.968;2023-02-21T14:56:43;17.30;67.80
30999;DHT22;20549;50.042;8.968;2023-02-21T15:04:50;17.30;67.80
30999;DHT22;20549;50.042;8.968;2023-02-21T15:07:32;17.20;67.80
30999;DHT22;20549;50.042;8.968;2023-02-21T15:10:14;17.20;68.00
30999;DHT22;20549;50.042;8.968;2023-02-21T15:12:44;17.20;68.00
30999;DHT22;20549;50.042;8.968;2023-02-21T15:15:10;17.20;68.00
30999;DHT22;20549;50.042;8.968;2023-02-21T15:17:32;17.20;67.10
30999;DHT22;20549;50.042;8.968;2023-02-21T15:20:23;17.20;67.80
30999;DHT22;20549;50.042;8.968;2023-02-21T15:22:28;17.10;67.90
30999;DHT22;20549;50.042;8.968;2023-02-21T15:27:53;17.10;67.80
30999;DHT22;20549;50.042;8.968;2023-02-21T15:30:16;17.10;67.80
30999;DHT22;20549;50.042;8.968;2023-02-21T15:32:41;17.10;67.80
30999;DHT22;20549;50.042;8.968;2023-02-21T15:35:12;17.10;67.80
30999;DHT22;20549;50.042;8.968;2023-02-21T15:37:37;17.00;67.80
30999;DHT22;20549;50.042;8.968;2023-02-21T15:40:12;17.10;68.00
30999;DHT22;20549;50.042;8.968;2023-02-21T15:42:33;17.00;67.80
30999;DHT22;20549;50.042;8.968;2023-02-21T15:45:04;17.00;67.80
30999;DHT22;20549;50.042;8.968;2023-02-21T15:47:26;17.00;68.00
30999;DHT22;20549;50.042;8.968;2023-02-21T15:49:59;16.90;67.90
30999;DHT22;20549;50.042;8.968;2023-02-21T15:52:38;16.90;67.80
30999;DHT22;20549;50.042;8.968;2023-02-21T15:58:01;16.80;67.80
30999;DHT22;20549;50.042;8.968;2023-02-21T16:00:30;16.80;67.90
30999;DHT22;20549;50.042;8.968;2023-02-21T16:03:39;16.70;68.00
30999;DHT22;20549;50.042;8.968;2023-02-21T16:07:49;16.70;68.00
30999;DHT22;20549;50.042;8.968;2023-02-21T16:10:16;16.60;68.00
30999;DHT22;20549;50.042;8.968;2023-02-21T16:12:43;16.60;68.00
30999;DHT22;20549;50.042;8.968;2023-02-21T16:15:22;16.60;68.00
30999;DHT22;20549;50.042;8.968;2023-02-21T16:17:51;16.50;68.00
30999;DHT22;20549;50.042;8.968;2023-02-21T16:20:17;16.50;68.10
30999;DHT22;20549;50.042;8.968;2023-02-21T16:22:49;16.40;68.00
30999;DHT22;20549;50.042;8.968;2023-02-21T16:25:20;16.40;68.10
30999;DHT22;20549;50.042;8.968;2023-02-21T16:27:49;16.30;68.10
30999;DHT22;20549;50.042;8.968;2023-02-21T16:30:24;16.20;68.10
30999;DHT22;20549;50.042;8.968;2023-02-21T16:32:47;16.20;68.20
30999;DHT22;20549;50.042;8.968;2023-02-21T16:35:15;16.10;68.20
30999;DHT22;20549;50.042;8.968;2023-02-21T16:37:40;16.00;68.30
30999;DHT22;20549;50.042;8.968;2023-02-21T16:40:16;16.00;68.40
30999;DHT22;20549;50.042;8.968;2023-02-21T16:42:39;15.90;68.50
30999;DHT22;20549;50.042;8.968;2023-02-21T16:45:06;15.80;68.60
30999;DHT22;20549;50.042;8.968;2023-02-21T16:47:32;15.70;68.70
30999;DHT22;20549;50.042;8.968;2023-02-21T16:49:59;15.60;68.80
30999;DHT22;20549;50.042;8.968;2023-02-21T16:52:26;15.50;68.90
30999;DHT22;20549;50.042;8.968;2023-02-21T16:54:52;15.50;69.10
30999;DHT22;20549;50.042;8.968;2023-02-21T16:57:19;15.40;69.20
30999;DHT22;20549;50.042;8.968;2023-02-21T16:59:45;15.30;69.30
30999;DHT22;20549;50.042;8.968;2023-02-21T17:02:12;15.20;69.40
30999;DHT22;20549;50.042;8.968;2023-02-21T17:04:39;15.10;69.50
30999;DHT22;20549;50.042;8.968;2023-02-21T17:07:05;15.00;69.50
30999;DHT22;20549;50.042;8.968;2023-02-21T17:09:32;14.90;70.60
30999;DHT22;20549;50.042;8.968;2023-02-21T17:11:58;14.90;69.90
30999;DHT22;20549;50.042;8.968;2023-02-21T17:14:25;14.80;70.00
30999;DHT22;20549;50.042;8.968;2023-02-21T17:16:51;14.70;70.20
30999;DHT22;20549;50.042;8.968;2023-02-21T17:19:18;14.60;70.30
30999;DHT22;20549;50.042;8.968;2023-02-21T17:21:45;14.50;70.50
30999;DHT22;20549;50.042;8.968;2023-02-21T17:24:12;14.40;70.60
30999;DHT22;20549;50.042;8.968;2023-02-21T17:26:38;14.30;70.70
30999;DHT22;20549;50.042;8.968;2023-02-21T17:29:05;14.20;70.80
30999;DHT22;20549;50.042;8.968;2023-02-21T17:31:31;14.10;71.10
30999;DHT22;20549;50.042;8.968;2023-02-21T17:33:58;14.10;71.30
30999;DHT22;20549;50.042;8.968;2023-02-21T17:36:25;14.00;71.50
30999;DHT22;20549;50.042;8.968;2023-02-21T17:38:51;13.90;71.60
30999;DHT22;20549;50.042;8.968;2023-02-21T17:41:18;13.80;71.90
30999;DHT22;20549;50.042;8.968;2023-02-21T17:43:44;13.70;72.00
30999;DHT22;20549;50.042;8.968;2023-02-21T17:46:11;13.60;72.20
30999;DHT22;20549;50.042;8.968;2023-02-21T17:48:38;13.50;72.40
30999;DHT22;20549;50.042;8.968;2023-02-21T17:51:04;13.40;72.60
30999;DHT22;20549;50.042;8.968;2023-02-21T17:53:30;13.30;72.70
30999;DHT22;20549;50.042;8.968;2023-02-21T17:55:57;13.20;72.90
30999;DHT22;20549;50.042;8.968;2023-02-21T17:58:26;13.10;73.10
30999;DHT22;20549;50.042;8.968;2023-02-21T18:00:50;13.00;73.20
30999;DHT22;20549;50.042;8.968;2023-02-21T18:03:17;13.00;73.60
30999;DHT22;20549;50.042;8.968;2023-02-21T18:05:43;12.80;73.50
30999;DHT22;20549;50.042;8.968;2023-02-21T18:08:10;12.80;73.80
30999;DHT22;20549;50.042;8.968;2023-02-21T18:10:36;12.70;74.00
30999;DHT22;20549;50.042;8.968;2023-02-21T18:13:03;12.60;74.20
30999;DHT22;20549;50.042;8.968;2023-02-21T18:15:30;12.50;74.50
30999;DHT22;20549;50.042;8.968;2023-02-21T18:17:56;12.40;74.60